createdAt,value
2023-01-19T00:00:22.648Z,17.40
2023-01-19T00:03:10.633Z,17.37
2023-01-19T00:05:55.337Z,22.87
2023-01-19T00:08:40.982Z,16.33
2023-01-19T00:11:25.472Z,26.33
2023-01-19T00:14:11.081Z,21.30
2023-01-19T00:16:55.127Z,29.33
2023-01-19T00:19:39.245Z,18.57
2023-01-19T00:22:23.726Z,13.07
2023-01-19T00:25:10.097Z,17.90
2023-01-19T00:27:54.141Z,17.27
2023-01-19T00:30:38.537Z,22.63
2023-01-19T00:33:22.659Z,22.90
2023-01-19T00:36:07.171Z,20.60
2023-01-19T00:38:51.593Z,21.83
2023-01-19T00:41:54.232Z,22.33
2023-01-19T00:44:38.639Z,15.57
2023-01-19T00:47:22.962Z,15.13
2023-01-19T00:50:07.828Z,16.97
2023-01-19T00:52:54.474Z,21.90
2023-01-19T00:55:38.606Z,17.50
2023-01-19T00:58:24.179Z,17.23
2023-01-19T01:01:08.643Z,21.23
2023-01-19T01:03:53.665Z,18.23
2023-01-19T01:06:38.017Z,14.00
2023-01-19T01:09:22.136Z,19.03
2023-01-19T01:12:06.568Z,17.27
2023-01-19T01:14:51.992Z,19.63
2023-01-19T01:17:37.030Z,20.20
2023-01-19T01:20:23.411Z,19.93
2023-01-19T01:23:07.873Z,21.57
2023-01-19T01:25:52.090Z,13.40
2023-01-19T01:28:36.064Z,21.70
2023-01-19T01:31:21.751Z,19.03
2023-01-19T01:34:06.221Z,19.20
2023-01-19T01:36:50.208Z,17.90
2023-01-19T01:39:34.386Z,22.50
2023-01-19T01:42:20.399Z,17.03
2023-01-19T01:45:09.001Z,17.70
2023-01-19T01:47:57.063Z,20.47
2023-01-19T01:51:05.091Z,17.83
2023-01-19T01:53:54.813Z,19.97
2023-01-19T01:56:42.238Z,17.00
2023-01-19T01:59:29.784Z,19.77
2023-01-19T02:02:36.153Z,18.87
2023-01-19T02:05:25.611Z,15.27
2023-01-19T02:08:31.609Z,18.30
2023-01-19T02:11:33.012Z,19.93
2023-01-19T02:14:16.898Z,18.40
2023-01-19T02:17:01.324Z,16.13
2023-01-19T02:20:05.876Z,19.40
2023-01-19T02:22:53.216Z,18.80
2023-01-19T02:25:40.749Z,25.83
2023-01-19T02:28:26.139Z,16.63
2023-01-19T02:31:10.898Z,20.37
2023-01-19T02:33:56.095Z,16.87
2023-01-19T02:36:45.128Z,22.67
2023-01-19T02:39:35.305Z,22.47
2023-01-19T02:42:26.372Z,26.97
2023-01-19T02:45:12.836Z,19.37
2023-01-19T02:47:57.279Z,23.27
2023-01-19T02:50:46.315Z,24.50
2023-01-19T02:54:09.331Z,15.90
2023-01-19T02:57:07.506Z,24.97
2023-01-19T03:00:04.259Z,15.67
2023-01-19T03:03:03.069Z,22.93
2023-01-19T03:05:56.990Z,13.97
2023-01-19T03:08:49.427Z,18.83
2023-01-19T03:11:40.349Z,19.30
2023-01-19T03:14:32.004Z,21.37
2023-01-19T03:17:19.493Z,21.67
2023-01-19T03:20:06.328Z,22.33
2023-01-19T03:22:53.572Z,25.60
2023-01-19T03:25:43.422Z,18.60
2023-01-19T03:28:30.563Z,17.43
2023-01-19T03:31:18.351Z,23.83
2023-01-19T03:34:07.357Z,16.00
2023-01-19T03:36:54.399Z,24.93
2023-01-19T03:39:38.549Z,15.53
2023-01-19T03:42:23.181Z,25.73
2023-01-19T03:45:08.857Z,19.50
2023-01-19T03:47:53.554Z,19.23
2023-01-19T03:50:39.058Z,23.73
2023-01-19T03:53:23.658Z,19.43
2023-01-19T03:56:11.330Z,19.87
2023-01-19T03:58:56.348Z,24.43
2023-01-19T04:01:41.112Z,23.27
2023-01-19T04:04:25.627Z,23.33
2023-01-19T04:07:12.345Z,24.77
2023-01-19T04:09:56.573Z,23.43
2023-01-19T04:12:40.718Z,20.47
2023-01-19T04:15:24.582Z,23.00
2023-01-19T04:18:08.740Z,26.97
2023-01-19T04:20:53.215Z,22.50
2023-01-19T04:23:38.810Z,24.47
2023-01-19T04:26:22.955Z,28.00
2023-01-19T04:29:07.019Z,23.53
2023-01-19T04:31:50.903Z,27.97
2023-01-19T04:34:35.256Z,26.03
2023-01-19T04:37:19.314Z,25.63
2023-01-19T04:40:05.525Z,24.30
2023-01-19T04:42:49.808Z,21.40
2023-01-19T04:45:33.950Z,26.33
2023-01-19T04:48:19.761Z,28.27
2023-01-19T04:51:04.395Z,24.67
2023-01-19T04:53:48.372Z,23.07
2023-01-19T04:56:33.958Z,24.00
2023-01-19T04:59:18.106Z,27.20
2023-01-19T05:02:02.331Z,25.50
2023-01-19T05:04:46.373Z,22.77
2023-01-19T05:07:30.442Z,22.37
2023-01-19T05:10:14.829Z,27.70
2023-01-19T05:13:00.957Z,22.17
2023-01-19T05:15:45.266Z,21.27
2023-01-19T05:18:30.190Z,30.47
2023-01-19T05:21:14.277Z,25.63
2023-01-19T05:23:58.618Z,29.10
2023-01-19T05:26:43.624Z,24.33
2023-01-19T05:29:29.339Z,35.27
2023-01-19T05:32:13.820Z,22.17
2023-01-19T05:34:58.072Z,21.07
2023-01-19T05:37:42.261Z,20.50
2023-01-19T05:40:26.377Z,22.23
2023-01-19T05:43:10.553Z,29.47
2023-01-19T05:45:56.413Z,26.60
2023-01-19T05:48:40.629Z,20.03
2023-01-19T05:51:24.750Z,31.63
2023-01-19T05:54:10.239Z,33.27
2023-01-19T05:56:54.656Z,21.83
2023-01-19T05:59:38.866Z,32.37
2023-01-19T06:02:28.894Z,29.67
2023-01-19T06:05:13.481Z,25.80
2023-01-19T06:07:58.246Z,25.17
2023-01-19T06:10:42.618Z,25.50
2023-01-19T06:13:26.846Z,24.20
2023-01-19T06:16:11.926Z,24.77
2023-01-19T06:18:57.573Z,28.90
2023-01-19T06:21:41.571Z,27.93
2023-01-19T06:24:26.206Z,26.90
2023-01-19T06:27:11.360Z,32.73
2023-01-19T06:29:55.471Z,28.33
2023-01-19T06:32:39.674Z,29.00
2023-01-19T06:35:25.148Z,29.37
2023-01-19T06:38:09.415Z,28.50
2023-01-19T06:40:55.747Z,26.57
2023-01-19T06:43:39.777Z,32.97
2023-01-19T06:46:23.869Z,27.23
2023-01-19T06:49:08.194Z,24.33
2023-01-19T06:51:53.739Z,24.90
2023-01-19T06:54:37.822Z,25.27
2023-01-19T06:57:22.220Z,30.47
2023-01-19T07:00:09.039Z,27.40
2023-01-19T07:02:54.228Z,27.87
2023-01-19T07:05:38.255Z,33.42
2023-01-19T07:08:24.646Z,32.73
2023-01-19T07:11:27.113Z,27.23
2023-01-19T07:14:18.323Z,36.37
2023-01-19T07:17:03.188Z,29.13
2023-01-19T07:19:48.004Z,24.80
2023-01-19T07:22:32.170Z,28.17
2023-01-19T07:25:17.933Z,31.43
2023-01-19T07:28:02.342Z,30.07
2023-01-19T07:30:47.446Z,26.88
2023-01-19T07:33:31.574Z,30.33
2023-01-19T07:36:15.821Z,23.73
2023-01-19T07:38:59.993Z,28.08
2023-01-19T07:41:45.915Z,31.90
2023-01-19T07:44:30.230Z,28.33
2023-01-19T07:47:14.471Z,28.45
2023-01-19T07:49:58.850Z,21.48
2023-01-19T07:52:43.578Z,31.27
2023-01-19T07:55:27.868Z,21.92
2023-01-19T07:58:13.823Z,25.73
2023-01-19T08:00:58.036Z,21.10
2023-01-19T08:03:42.651Z,29.58
2023-01-19T08:06:33.940Z,24.80
2023-01-19T08:09:18.351Z,26.55
2023-01-19T08:12:02.957Z,28.45
2023-01-19T08:14:48.358Z,30.80
2023-01-19T08:17:32.490Z,27.10
2023-01-19T08:20:17.146Z,20.23
2023-01-19T08:23:03.106Z,25.80
2023-01-19T08:25:47.856Z,26.30
2023-01-19T08:28:32.343Z,27.15
2023-01-19T08:31:21.132Z,33.70
2023-01-19T08:34:07.066Z,20.48
2023-01-19T08:36:51.066Z,23.58
2023-01-19T08:39:35.153Z,30.42
2023-01-19T08:42:19.239Z,24.48
2023-01-19T08:45:03.444Z,23.45
2023-01-19T08:47:50.679Z,20.92
2023-01-19T08:50:36.304Z,29.42
2023-01-19T08:53:23.787Z,33.85
2023-01-19T08:56:12.580Z,20.83
2023-01-19T08:59:08.211Z,23.48
2023-01-19T09:01:52.873Z,29.98
2023-01-19T09:04:38.499Z,20.17
2023-01-19T09:07:22.356Z,24.33
2023-01-19T09:10:07.357Z,31.02
2023-01-19T09:12:51.675Z,32.03
2023-01-19T09:15:37.802Z,22.90
2023-01-19T09:18:23.769Z,31.48
2023-01-19T09:21:09.440Z,21.35
2023-01-19T09:23:54.806Z,19.85
2023-01-19T09:26:40.770Z,23.65
2023-01-19T09:29:24.714Z,31.67
2023-01-19T09:32:09.277Z,22.20
2023-01-19T09:34:54.044Z,24.13
2023-01-19T09:37:41.094Z,18.10
2023-01-19T09:40:24.965Z,22.08
2023-01-19T09:43:15.628Z,30.60
2023-01-19T09:46:01.556Z,31.27
2023-01-19T09:48:48.898Z,30.92
2023-01-19T09:51:37.529Z,35.63
2023-01-19T09:54:28.582Z,30.58
2023-01-19T09:57:13.644Z,21.55
2023-01-19T09:59:59.870Z,25.95
2023-01-19T10:02:48.023Z,25.20
2023-01-19T10:05:38.392Z,18.98
2023-01-19T10:08:31.911Z,26.77
2023-01-19T10:11:41.882Z,22.13
2023-01-19T10:14:46.838Z,26.80
2023-01-19T10:17:39.879Z,20.70
2023-01-19T10:20:29.201Z,20.13
2023-01-19T10:23:24.389Z,19.98
2023-01-19T10:26:13.317Z,22.65
2023-01-19T10:29:04.503Z,17.00
2023-01-19T10:31:50.019Z,22.95
2023-01-19T10:34:34.176Z,20.88
2023-01-19T10:37:29.648Z,23.80
2023-01-19T10:40:27.175Z,17.73
2023-01-19T10:43:39.841Z,24.83
2023-01-19T10:46:34.253Z,20.20
2023-01-19T10:49:30.107Z,19.70
2023-01-19T10:52:26.093Z,16.80
2023-01-19T10:55:25.907Z,19.67
2023-01-19T10:58:28.931Z,25.50
2023-01-19T11:01:18.463Z,18.20
2023-01-19T11:04:21.976Z,24.58
2023-01-19T11:07:16.536Z,18.02
2023-01-19T11:10:22.204Z,16.58
2023-01-19T11:13:12.750Z,22.50
2023-01-19T11:15:58.770Z,19.40
2023-01-19T11:18:45.604Z,13.95
2023-01-19T11:21:33.067Z,20.23
2023-01-19T11:24:17.440Z,21.85
2023-01-19T11:27:03.780Z,16.83
2023-01-19T11:29:50.763Z,15.75
2023-01-19T11:32:38.632Z,21.88
2023-01-19T11:35:35.285Z,18.48
2023-01-19T11:38:23.346Z,16.45
2023-01-19T11:41:07.188Z,22.48
2023-01-19T11:43:54.319Z,21.35
2023-01-19T11:46:42.370Z,19.17
2023-01-19T11:49:33.476Z,16.48
2023-01-19T11:52:25.346Z,21.92
2023-01-19T11:55:18.820Z,21.80
2023-01-19T11:58:04.869Z,17.02
2023-01-19T12:00:54.329Z,13.93
2023-01-19T12:03:42.136Z,21.75
2023-01-19T12:06:30.792Z,15.63
2023-01-19T12:09:20.759Z,15.90
2023-01-19T12:12:09.044Z,18.70
2023-01-19T12:14:58.236Z,12.43
2023-01-19T12:17:47.281Z,16.80
2023-01-19T12:20:36.418Z,17.05
2023-01-19T12:23:39.288Z,17.27
2023-01-19T12:26:52.012Z,15.55
2023-01-19T12:29:38.257Z,16.27
2023-01-19T12:32:34.495Z,15.55
2023-01-19T12:35:56.169Z,15.88
2023-01-19T12:38:48.780Z,12.85
2023-01-19T12:41:35.309Z,10.07
2023-01-19T12:44:34.126Z,12.38
2023-01-19T12:47:26.327Z,13.57
2023-01-19T12:50:19.172Z,15.23
2023-01-19T12:53:07.372Z,9.63
2023-01-19T12:56:01.261Z,11.45
2023-01-19T12:58:50.407Z,10.45
2023-01-19T13:01:34.211Z,9.43
2023-01-19T13:04:34.945Z,14.10
2023-01-19T13:07:20.335Z,10.52
2023-01-19T13:10:37.299Z,11.05
2023-01-19T13:13:22.808Z,17.40
2023-01-19T13:16:39.418Z,13.20
2023-01-19T13:19:33.677Z,14.68
2023-01-19T13:22:54.023Z,14.43
2023-01-19T13:25:37.961Z,13.05
2023-01-19T13:28:29.545Z,10.25
2023-01-19T13:31:14.774Z,9.35
2023-01-19T13:34:01.876Z,9.90
2023-01-19T13:36:47.485Z,9.48
2023-01-19T13:39:36.965Z,12.82
2023-01-19T13:42:30.839Z,9.20
2023-01-19T13:45:22.693Z,9.15
2023-01-19T13:48:09.036Z,8.93
2023-01-19T13:51:05.129Z,8.98
2023-01-19T13:53:56.477Z,7.47
2023-01-19T13:56:43.601Z,7.90
2023-01-19T13:59:27.435Z,7.43
2023-01-19T14:02:15.530Z,9.80
2023-01-19T14:04:59.530Z,8.20
2023-01-19T14:07:43.554Z,5.95
2023-01-19T14:10:27.489Z,11.57
2023-01-19T14:13:17.708Z,7.85
2023-01-19T14:16:06.952Z,7.78
2023-01-19T14:19:01.174Z,12.90
2023-01-19T14:21:46.150Z,7.50
2023-01-19T14:24:33.158Z,7.93
2023-01-19T14:27:24.200Z,4.55
2023-01-19T14:30:21.735Z,11.88
2023-01-19T14:33:05.609Z,6.35
2023-01-19T14:35:49.386Z,6.10
2023-01-19T14:38:33.126Z,10.48
2023-01-19T14:41:26.076Z,5.32
2023-01-19T14:44:11.050Z,9.45
2023-01-19T14:46:56.653Z,12.20
2023-01-19T14:49:47.533Z,6.88
2023-01-19T14:52:35.276Z,8.20
2023-01-19T14:55:23.304Z,7.68
2023-01-19T14:58:12.371Z,14.93
2023-01-19T15:00:56.570Z,6.35
2023-01-19T15:03:45.353Z,4.80
2023-01-19T15:06:30.053Z,11.48
2023-01-19T15:09:14.765Z,5.13
2023-01-19T15:11:58.604Z,10.63
2023-01-19T15:14:42.693Z,6.55
2023-01-19T15:17:26.674Z,8.95
2023-01-19T15:20:16.421Z,8.32
2023-01-19T15:23:00.337Z,5.63
2023-01-19T15:25:44.270Z,5.32
2023-01-19T15:28:28.342Z,11.73
2023-01-19T15:31:16.495Z,8.57
2023-01-19T15:34:00.300Z,10.35
2023-01-19T15:36:45.497Z,9.10
2023-01-19T15:39:29.237Z,15.70
2023-01-19T15:42:15.649Z,13.23
2023-01-19T15:44:59.427Z,6.18
2023-01-19T15:47:43.190Z,7.68
2023-01-19T15:50:27.644Z,7.35
2023-01-19T15:53:15.444Z,5.07
2023-01-19T15:55:59.310Z,10.13
2023-01-19T15:58:43.387Z,16.33
2023-01-19T16:01:31.589Z,10.93
2023-01-19T16:04:17.943Z,14.07
2023-01-19T16:07:02.053Z,13.50
2023-01-19T16:09:47.316Z,9.83
2023-01-19T16:12:31.107Z,8.47
2023-01-19T16:15:15.384Z,6.40
2023-01-19T16:17:59.219Z,7.80
2023-01-19T16:20:43.139Z,8.48
2023-01-19T16:23:26.942Z,7.57
2023-01-19T16:26:26.851Z,5.00
2023-01-19T16:29:11.149Z,10.37
2023-01-19T16:31:55.073Z,8.75
2023-01-19T16:34:38.940Z,6.80
2023-01-19T16:37:22.694Z,7.03
2023-01-19T16:40:07.753Z,5.47
2023-01-19T16:42:53.065Z,5.82
2023-01-19T16:45:39.600Z,10.70
2023-01-19T16:48:23.498Z,10.87
2023-01-19T16:51:07.755Z,15.85
2023-01-19T16:53:51.727Z,14.18
2023-01-19T16:56:35.664Z,11.68
2023-01-19T16:59:22.198Z,8.73
2023-01-19T17:02:06.277Z,9.20
2023-01-19T17:04:50.090Z,7.73
2023-01-19T17:07:33.837Z,9.33
2023-01-19T17:10:17.841Z,11.13
2023-01-19T17:13:01.542Z,7.40
2023-01-19T17:15:46.857Z,7.22
2023-01-19T17:18:33.346Z,6.38
2023-01-19T17:21:19.422Z,13.20
2023-01-19T17:24:03.387Z,4.63
2023-01-19T17:26:48.838Z,5.30
2023-01-19T17:29:32.851Z,6.93
2023-01-19T17:32:18.170Z,4.70
2023-01-19T17:35:02.029Z,5.20
2023-01-19T17:37:47.167Z,7.13
2023-01-19T17:40:31.653Z,6.43
2023-01-19T17:43:15.410Z,9.37
2023-01-19T17:46:01.272Z,7.10
2023-01-19T17:48:46.798Z,8.30
2023-01-19T17:51:31.510Z,6.37
2023-01-19T17:54:15.295Z,4.77
2023-01-19T17:56:59.138Z,8.37
2023-01-19T17:59:43.943Z,7.13
2023-01-19T18:02:27.923Z,6.07
2023-01-19T18:05:14.383Z,8.80
2023-01-19T18:08:00.381Z,6.72
2023-01-19T18:10:44.279Z,5.10
2023-01-19T18:13:29.575Z,6.93
2023-01-19T18:16:16.344Z,8.73
2023-01-19T18:19:00.278Z,7.60
2023-01-19T18:21:45.514Z,7.47
2023-01-19T18:24:29.689Z,6.63
2023-01-19T18:27:13.648Z,6.37
2023-01-19T18:29:57.711Z,6.23
2023-01-19T18:32:41.752Z,6.23
2023-01-19T18:35:26.429Z,6.33
2023-01-19T18:38:11.761Z,9.10
2023-01-19T18:41:02.535Z,9.82
2023-01-19T18:43:46.894Z,6.57
2023-01-19T18:46:30.997Z,12.40
2023-01-19T18:49:16.226Z,6.33
2023-01-19T18:52:00.319Z,7.10
2023-01-19T18:54:46.843Z,10.67
2023-01-19T18:57:32.171Z,7.82
2023-01-19T19:00:18.206Z,7.75
2023-01-19T19:03:03.685Z,8.37
2023-01-19T19:05:49.453Z,11.47
2023-01-19T19:08:36.863Z,10.63
2023-01-19T19:11:25.692Z,10.23
2023-01-19T19:14:11.645Z,8.27
2023-01-19T19:16:56.839Z,8.13
2023-01-19T19:19:42.083Z,6.33
2023-01-19T19:22:27.329Z,7.27
2023-01-19T19:25:12.877Z,6.87
2023-01-19T19:27:59.766Z,6.73
2023-01-19T19:30:45.915Z,8.87
2023-01-19T19:33:31.467Z,8.27
2023-01-19T19:36:17.323Z,8.27
2023-01-19T19:39:02.732Z,10.30
2023-01-19T19:41:48.449Z,10.07
2023-01-19T19:44:35.351Z,9.60
2023-01-19T19:47:21.144Z,9.33
2023-01-19T19:50:06.916Z,9.17
2023-01-19T19:52:55.223Z,8.23
2023-01-19T19:55:40.937Z,7.53
2023-01-19T19:58:26.783Z,7.27
2023-01-19T20:01:15.733Z,7.43
2023-01-19T20:04:06.667Z,7.07
2023-01-19T20:06:52.175Z,4.27
2023-01-19T20:09:37.783Z,7.63
2023-01-19T20:12:23.553Z,6.70
2023-01-19T20:15:08.794Z,5.67
2023-01-19T20:17:55.692Z,6.83
2023-01-19T20:20:41.218Z,7.37
2023-01-19T20:23:26.564Z,11.13
2023-01-19T20:26:13.981Z,8.43
2023-01-19T20:29:01.942Z,4.50
2023-01-19T20:31:48.825Z,10.87
2023-01-19T20:34:36.537Z,10.10
2023-01-19T20:37:21.195Z,5.90
2023-01-19T20:40:06.406Z,10.47
2023-01-19T20:42:50.676Z,4.20
2023-01-19T20:45:34.689Z,6.47
2023-01-19T20:48:18.568Z,12.27
2023-01-19T20:51:06.586Z,5.93
2023-01-19T20:53:50.861Z,11.70
2023-01-19T20:56:35.082Z,6.80
2023-01-19T20:59:19.428Z,7.07
2023-01-19T21:02:04.197Z,4.00
2023-01-19T21:04:48.424Z,6.33
2023-01-19T21:07:33.872Z,5.97
2023-01-19T21:10:18.866Z,6.87
2023-01-19T21:13:02.895Z,6.53
2023-01-19T21:15:46.728Z,7.70
2023-01-19T21:18:30.660Z,7.33
2023-01-19T21:21:28.733Z,8.40
2023-01-19T21:24:15.038Z,7.47
2023-01-19T21:26:58.923Z,7.03
2023-01-19T21:29:42.796Z,6.23
2023-01-19T21:32:26.641Z,5.73
2023-01-19T21:35:11.273Z,3.67
2023-01-19T21:37:55.230Z,5.43
2023-01-19T21:40:40.348Z,7.43
2023-01-19T21:43:24.811Z,3.30
2023-01-19T21:46:13.729Z,3.23
2023-01-19T21:48:58.298Z,5.63
2023-01-19T21:51:42.083Z,4.10
2023-01-19T21:54:25.863Z,5.83
2023-01-19T21:57:11.128Z,5.90
2023-01-19T21:59:54.842Z,6.10
2023-01-19T22:02:39.357Z,3.03
2023-01-19T22:05:23.274Z,3.80
2023-01-19T22:08:07.492Z,4.50
2023-01-19T22:10:51.334Z,5.50
2023-01-19T22:13:38.554Z,4.90
2023-01-19T22:16:24.149Z,5.53
2023-01-19T22:19:08.310Z,5.20
2023-01-19T22:21:52.286Z,7.37
2023-01-19T22:24:36.056Z,6.60
2023-01-19T22:27:20.071Z,5.57
2023-01-19T22:30:05.804Z,7.03
2023-01-19T22:32:49.378Z,4.27
2023-01-19T22:35:33.223Z,4.40
2023-01-19T22:38:17.095Z,5.73
2023-01-19T22:41:00.898Z,4.57
2023-01-19T22:43:45.418Z,5.83
2023-01-19T22:46:31.911Z,4.20
2023-01-19T22:49:17.188Z,4.20
2023-01-19T22:52:01.099Z,7.03
2023-01-19T22:54:44.843Z,3.67
2023-01-19T22:57:28.696Z,4.97
2023-01-19T23:00:13.920Z,5.10
2023-01-19T23:02:59.338Z,6.10
2023-01-19T23:05:43.290Z,3.73
2023-01-19T23:08:27.166Z,4.47
2023-01-19T23:11:13.373Z,4.57
2023-01-19T23:13:57.547Z,6.53
2023-01-19T23:16:41.558Z,5.00
2023-01-19T23:19:26.915Z,7.00
2023-01-19T23:22:10.736Z,5.53
2023-01-19T23:24:54.880Z,4.77
2023-01-19T23:27:38.704Z,7.30
2023-01-19T23:30:22.706Z,4.60
2023-01-19T23:33:06.471Z,5.03
2023-01-19T23:35:51.804Z,5.23
2023-01-19T23:38:35.643Z,3.73
2023-01-19T23:41:20.091Z,6.63
2023-01-19T23:44:04.302Z,4.40
2023-01-19T23:46:48.360Z,4.37
2023-01-19T23:49:32.145Z,4.97
2023-01-19T23:52:17.463Z,4.63
2023-01-19T23:55:01.537Z,5.17
2023-01-19T23:57:47.122Z,4.00
